TO03 weather

Aviosuperficie Moncucco
Vische (TO), Piedmont, Italy

Public forecast

Using degrees Celsius for public forecast. Weather courtesy of forecast.io.

Closest aviation weather report (METAR) to Aviosuperficie Moncucco

Closest report is Turin Airport, 14.3 nm (26.5 km) SW. Retrieved 2020/01/27 08:20 UTC (11 minutes ago):

LIMF 270820Z 28003KT 240V320 8000 NSC 01/M01 Q1020

Closest aviation forecast (TAF) to Aviosuperficie Moncucco

Closest forecast is Turin Airport, 14.3 nm (26.5 km) SW. Retrieved 2020/01/27 06:00 UTC (3 hours ago):

TAF LIMF 270500Z 2706/2806 VRB05KT 4000 BR NSC TEMPO 2706/2708 1500 BCFG PROB40 TEMPO 2721/2724 2000 DZ BKN012 BKN050 TEMPO 2800/2006 2000 BCFG